createdAt,value
2023-03-05T00:02:17.895Z,10.90
2023-03-05T00:04:50.591Z,13.27
2023-03-05T00:07:23.458Z,7.55
2023-03-05T00:09:55.912Z,6.07
2023-03-05T00:12:29.263Z,10.20
2023-03-05T00:15:01.980Z,10.05
2023-03-05T00:17:35.034Z,6.53
2023-03-05T00:20:08.072Z,8.93
2023-03-05T00:22:41.068Z,8.52
2023-03-05T00:25:18.664Z,5.30
2023-03-05T00:27:52.597Z,6.50
2023-03-05T00:30:26.370Z,6.75
2023-03-05T00:33:05.530Z,11.15
2023-03-05T00:35:42.191Z,6.60
2023-03-05T00:38:15.117Z,11.60
2023-03-05T00:40:50.747Z,6.70
2023-03-05T00:43:23.833Z,12.15
2023-03-05T00:46:03.131Z,11.57
2023-03-05T00:48:36.246Z,12.20
2023-03-05T00:51:09.899Z,18.80
2023-03-05T00:53:42.878Z,7.43
2023-03-05T00:56:15.657Z,7.15
2023-03-05T00:58:48.562Z,11.35
2023-03-05T01:01:21.211Z,3.00
2023-03-05T01:03:58.697Z,12.57
2023-03-05T01:06:33.796Z,5.20
2023-03-05T01:09:07.480Z,6.32
2023-03-05T01:11:40.243Z,7.18
2023-03-05T01:14:13.628Z,11.27
2023-03-05T01:16:46.502Z,2.55
2023-03-05T01:19:19.486Z,3.75
2023-03-05T01:21:52.060Z,8.93
2023-03-05T01:24:25.049Z,3.97
2023-03-05T01:26:57.960Z,3.00
2023-03-05T01:29:31.209Z,1.42
2023-03-05T01:32:03.772Z,2.90
2023-03-05T01:34:38.280Z,5.80
2023-03-05T01:37:11.575Z,4.00
2023-03-05T01:39:45.702Z,6.15
2023-03-05T01:42:22.405Z,3.40
2023-03-05T01:45:01.740Z,11.57
2023-03-05T01:47:34.324Z,28.48
2023-03-05T01:50:09.314Z,22.98
2023-03-05T01:52:46.150Z,8.00
2023-03-05T01:55:24.876Z,4.13
2023-03-05T01:58:08.568Z,30.60
2023-03-05T02:00:47.575Z,44.80
2023-03-05T02:03:24.220Z,41.95
2023-03-05T02:05:57.214Z,12.27
2023-03-05T02:08:29.907Z,7.32
2023-03-05T02:11:02.897Z,10.60
2023-03-05T02:13:38.602Z,11.20
2023-03-05T02:16:11.654Z,17.65
2023-03-05T02:18:45.178Z,12.45
2023-03-05T02:21:36.361Z,7.93
2023-03-05T02:24:11.595Z,5.75
2023-03-05T02:26:45.251Z,3.05
2023-03-05T02:29:19.618Z,6.60
2023-03-05T02:31:52.666Z,7.30
2023-03-05T02:34:25.457Z,4.97
2023-03-05T02:36:58.759Z,6.70
2023-03-05T02:39:35.378Z,11.57
2023-03-05T02:42:13.015Z,7.13
2023-03-05T02:44:46.182Z,5.32
2023-03-05T02:47:19.203Z,8.30
2023-03-05T02:49:52.149Z,2.50
2023-03-05T02:52:25.893Z,1.83
2023-03-05T02:54:58.601Z,2.88
2023-03-05T02:57:35.669Z,2.55
2023-03-05T03:00:08.749Z,3.72
2023-03-05T03:02:41.718Z,5.03
2023-03-05T03:05:14.578Z,4.00
2023-03-05T03:07:47.432Z,9.05
2023-03-05T03:10:19.989Z,3.35
2023-03-05T03:12:52.854Z,2.78
2023-03-05T03:15:25.714Z,6.00
2023-03-05T03:17:58.689Z,5.97
2023-03-05T03:20:31.272Z,6.28
2023-03-05T03:23:04.178Z,3.63
2023-03-05T03:25:36.711Z,6.07
2023-03-05T03:28:09.612Z,5.30
2023-03-05T03:30:42.154Z,3.78
2023-03-05T03:33:15.134Z,7.50
2023-03-05T03:35:47.728Z,4.13
2023-03-05T03:38:20.589Z,4.22
2023-03-05T03:40:53.191Z,3.97
2023-03-05T03:43:26.174Z,2.60
2023-03-05T03:45:58.721Z,2.20
2023-03-05T03:48:31.784Z,4.40
2023-03-05T03:51:05.492Z,3.90
2023-03-05T03:53:38.485Z,4.60
2023-03-05T03:56:11.010Z,3.63
2023-03-05T03:58:44.386Z,7.28
2023-03-05T04:01:16.979Z,5.93
2023-03-05T04:03:49.953Z,7.75
2023-03-05T04:06:22.543Z,3.28
2023-03-05T04:08:55.471Z,3.53
2023-03-05T04:11:28.310Z,5.03
2023-03-05T04:14:01.235Z,5.22
2023-03-05T04:16:34.230Z,4.05
2023-03-05T04:19:07.120Z,4.47
2023-03-05T04:21:40.489Z,8.38
2023-03-05T04:24:13.388Z,5.32
2023-03-05T04:26:45.916Z,4.15
2023-03-05T04:29:18.999Z,4.63
2023-03-05T04:31:52.086Z,9.48
2023-03-05T04:34:28.041Z,11.40
2023-03-05T04:37:04.149Z,12.52
2023-03-05T04:39:37.358Z,10.80
2023-03-05T04:42:10.803Z,7.90
2023-03-05T04:44:43.946Z,4.50
2023-03-05T04:47:17.009Z,7.10
2023-03-05T04:49:49.942Z,8.32
2023-03-05T04:52:22.783Z,7.82
2023-03-05T04:54:57.743Z,5.50
2023-03-05T04:57:36.191Z,20.15
2023-03-05T05:00:14.625Z,12.55
2023-03-05T05:02:48.589Z,6.35
2023-03-05T05:05:23.741Z,3.33
2023-03-05T05:07:56.955Z,7.78
2023-03-05T05:10:30.018Z,3.70
2023-03-05T05:13:02.973Z,15.93
2023-03-05T05:15:35.860Z,9.07
2023-03-05T05:18:08.734Z,14.13
2023-03-05T05:20:41.669Z,4.78
2023-03-05T05:23:14.245Z,10.00
2023-03-05T05:25:47.123Z,11.18
2023-03-05T05:28:19.604Z,9.65
2023-03-05T05:30:52.457Z,9.57
2023-03-05T05:33:25.531Z,24.27
2023-03-05T05:35:58.519Z,21.10
2023-03-05T05:38:31.174Z,8.68
2023-03-05T05:41:05.145Z,9.68
2023-03-05T05:43:38.119Z,8.15
2023-03-05T05:46:13.240Z,10.60
2023-03-05T05:48:46.243Z,11.73
2023-03-05T05:51:20.567Z,10.55
2023-03-05T05:53:53.566Z,8.98
2023-03-05T05:56:26.532Z,21.63
2023-03-05T05:58:59.095Z,9.30
2023-03-05T06:01:33.855Z,14.43
2023-03-05T06:04:06.545Z,15.75
2023-03-05T06:06:39.524Z,36.70
2023-03-05T06:09:12.065Z,10.52
2023-03-05T06:11:45.076Z,9.20
2023-03-05T06:14:17.892Z,16.20
2023-03-05T06:16:50.913Z,15.18
2023-03-05T06:19:23.411Z,14.50
2023-03-05T06:21:56.927Z,14.27
2023-03-05T06:24:29.491Z,13.52
2023-03-05T06:27:02.348Z,9.38
2023-03-05T06:29:34.988Z,6.53
2023-03-05T06:32:07.970Z,7.57
2023-03-05T06:34:40.607Z,11.07
2023-03-05T06:37:13.511Z,9.15
2023-03-05T06:39:46.014Z,8.25
2023-03-05T06:42:20.152Z,7.70
2023-03-05T06:44:52.717Z,3.45
2023-03-05T06:47:25.555Z,5.40
2023-03-05T06:49:58.149Z,13.55
2023-03-05T06:52:30.952Z,5.57
2023-03-05T06:55:03.661Z,4.82
2023-03-05T06:57:37.112Z,4.65
2023-03-05T07:00:10.590Z,8.35
2023-03-05T07:02:43.674Z,4.97
2023-03-05T07:05:16.793Z,3.47
2023-03-05T07:07:50.085Z,4.53
2023-03-05T07:10:22.645Z,6.03
2023-03-05T07:12:55.632Z,4.78
2023-03-05T07:15:34.135Z,6.93
2023-03-05T07:18:10.717Z,8.40
2023-03-05T07:20:43.312Z,6.57
2023-03-05T07:23:16.194Z,7.40
2023-03-05T07:25:48.818Z,18.92
2023-03-05T07:28:21.777Z,14.57
2023-03-05T07:31:02.202Z,17.50
2023-03-05T07:33:38.384Z,12.18
2023-03-05T07:36:12.387Z,10.45
2023-03-05T07:38:45.853Z,13.68
2023-03-05T07:41:29.962Z,7.32
2023-03-05T07:44:03.653Z,10.38
2023-03-05T07:46:36.649Z,8.40
2023-03-05T07:49:09.558Z,4.65
2023-03-05T07:51:42.831Z,13.80
2023-03-05T07:54:15.746Z,5.60
2023-03-05T07:56:49.070Z,14.90
2023-03-05T07:59:22.059Z,10.00
2023-03-05T08:01:56.034Z,13.57
2023-03-05T08:04:30.331Z,11.65
2023-03-05T08:07:03.270Z,7.93
2023-03-05T08:09:36.171Z,5.80
2023-03-05T08:12:11.864Z,11.77
2023-03-05T08:14:44.805Z,8.05
2023-03-05T08:17:17.641Z,13.88
2023-03-05T08:19:50.544Z,19.58
2023-03-05T08:22:26.949Z,16.98
2023-03-05T08:24:59.994Z,14.95
2023-03-05T08:27:32.753Z,11.20
2023-03-05T08:30:05.908Z,12.45
2023-03-05T08:32:38.628Z,12.45
2023-03-05T08:35:11.653Z,15.02
2023-03-05T08:37:44.333Z,11.00
2023-03-05T08:40:20.584Z,11.77
2023-03-05T08:42:53.359Z,6.38
2023-03-05T08:45:27.932Z,15.48
2023-03-05T08:48:00.463Z,9.68
2023-03-05T08:50:33.355Z,11.13
2023-03-05T08:53:05.880Z,11.48
2023-03-05T08:55:39.465Z,12.85
2023-03-05T08:58:11.992Z,9.32
2023-03-05T09:00:44.883Z,9.32
2023-03-05T09:03:17.594Z,22.88
2023-03-05T09:05:51.700Z,11.80
2023-03-05T09:08:24.278Z,5.80
2023-03-05T09:10:57.659Z,10.73
2023-03-05T09:13:30.438Z,6.68
2023-03-05T09:16:09.286Z,12.25
2023-03-05T09:18:41.889Z,26.58
2023-03-05T09:21:15.856Z,3.78
2023-03-05T09:23:48.576Z,8.63
2023-03-05T09:26:21.874Z,6.18
2023-03-05T09:28:54.426Z,5.85
2023-03-05T09:31:27.400Z,8.00
2023-03-05T09:33:59.971Z,5.55
2023-03-05T09:36:32.863Z,7.88
2023-03-05T09:39:07.309Z,15.98
2023-03-05T09:41:58.568Z,4.35
2023-03-05T09:44:47.775Z,14.15
2023-03-05T09:47:38.952Z,4.57
2023-03-05T09:50:32.145Z,4.30
2023-03-05T09:53:15.336Z,1.88
2023-03-05T09:55:51.033Z,2.58
2023-03-05T09:58:34.461Z,6.78
2023-03-05T10:01:11.804Z,8.88
2023-03-05T10:04:13.906Z,7.40
2023-03-05T10:06:46.395Z,20.13
2023-03-05T10:09:28.717Z,21.92
2023-03-05T10:12:03.645Z,5.50
2023-03-05T10:14:39.320Z,18.17
2023-03-05T10:17:11.884Z,8.93
2023-03-05T10:19:56.936Z,9.77
2023-03-05T10:22:32.089Z,8.30
2023-03-05T10:25:05.039Z,6.07
2023-03-05T10:27:54.092Z,8.07
2023-03-05T10:30:30.193Z,9.90
2023-03-05T10:33:12.966Z,8.40
2023-03-05T10:35:49.299Z,7.35
2023-03-05T10:38:25.013Z,8.48
2023-03-05T10:40:59.656Z,11.48
2023-03-05T10:43:44.118Z,7.95
2023-03-05T10:46:17.866Z,2.10
2023-03-05T10:48:53.218Z,5.93
2023-03-05T10:51:38.477Z,5.45
2023-03-05T10:54:20.723Z,19.85
2023-03-05T10:57:13.927Z,4.43
2023-03-05T10:59:48.500Z,4.55
2023-03-05T11:02:22.526Z,16.55
2023-03-05T11:04:55.283Z,14.27
2023-03-05T11:07:34.238Z,11.13
2023-03-05T11:10:13.969Z,2.88
2023-03-05T11:12:46.829Z,7.30
2023-03-05T11:15:26.662Z,4.63
2023-03-05T11:18:07.950Z,2.85
2023-03-05T11:20:40.722Z,16.80
2023-03-05T11:23:26.608Z,14.63
2023-03-05T11:26:03.855Z,15.38
2023-03-05T11:28:38.411Z,16.38
2023-03-05T11:31:16.963Z,12.88
2023-03-05T11:34:13.062Z,9.60
2023-03-05T11:37:03.914Z,7.88
2023-03-05T11:39:38.785Z,9.70
2023-03-05T11:42:14.025Z,15.07
2023-03-05T11:44:48.502Z,27.52
2023-03-05T11:47:26.900Z,6.38
2023-03-05T11:50:05.259Z,10.98
2023-03-05T11:52:46.993Z,5.10
2023-03-05T11:55:41.750Z,10.95
2023-03-05T11:58:27.185Z,3.55
2023-03-05T12:01:01.420Z,9.48
2023-03-05T12:03:35.453Z,6.10
2023-03-05T12:06:21.116Z,4.70
2023-03-05T12:08:58.658Z,16.85
2023-03-05T12:11:32.598Z,16.52
2023-03-05T12:14:05.261Z,50.20
2023-03-05T12:16:41.501Z,12.00
2023-03-05T12:19:20.550Z,12.63
2023-03-05T12:21:57.916Z,9.63
2023-03-05T12:24:30.491Z,13.25
2023-03-05T12:27:03.528Z,4.35
2023-03-05T12:29:52.991Z,11.77
2023-03-05T12:32:26.301Z,10.30
2023-03-05T12:35:01.946Z,9.02
2023-03-05T12:37:34.877Z,11.90
2023-03-05T12:40:10.253Z,9.13
2023-03-05T12:42:47.537Z,7.43
2023-03-05T12:45:23.471Z,5.55
2023-03-05T12:47:57.932Z,15.13
2023-03-05T12:50:31.111Z,27.00
2023-03-05T12:53:07.110Z,12.10
2023-03-05T12:55:47.918Z,16.38
2023-03-05T12:58:42.938Z,29.08
2023-03-05T13:01:22.457Z,21.00
2023-03-05T13:03:56.899Z,14.80
2023-03-05T13:06:34.926Z,7.88
2023-03-05T13:11:53.168Z,4.07
2023-03-05T13:14:33.324Z,5.95
2023-03-05T13:17:26.766Z,4.50
2023-03-05T13:22:43.680Z,6.38
2023-03-05T13:25:20.873Z,2.78
2023-03-05T13:27:53.378Z,3.47
2023-03-05T13:30:30.138Z,5.75
2023-03-05T13:33:16.571Z,5.38
2023-03-05T13:35:49.656Z,4.93
2023-03-05T13:38:22.137Z,8.85
2023-03-05T13:41:03.392Z,12.57
2023-03-05T13:43:42.753Z,12.13
2023-03-05T13:46:23.418Z,9.55
2023-03-05T13:48:56.199Z,4.75
2023-03-05T13:51:42.294Z,5.32
2023-03-05T13:54:15.816Z,1.92
2023-03-05T13:57:08.965Z,4.60
2023-03-05T13:59:42.749Z,5.32
2023-03-05T14:02:17.105Z,4.00
2023-03-05T14:04:50.437Z,1.98
2023-03-05T14:07:25.028Z,2.42
2023-03-05T14:09:57.651Z,1.38
2023-03-05T14:12:35.356Z,5.53
2023-03-05T14:15:21.124Z,3.13
2023-03-05T14:18:07.858Z,2.90
2023-03-05T14:20:41.126Z,3.15
2023-03-05T14:23:27.537Z,4.07
2023-03-05T14:26:18.635Z,5.95
2023-03-05T14:28:54.596Z,1.08
2023-03-05T14:31:28.289Z,4.60
2023-03-05T14:34:03.425Z,2.08
2023-03-05T14:36:36.114Z,1.85
2023-03-05T14:39:21.604Z,2.17
2023-03-05T14:41:54.165Z,6.30
2023-03-05T14:44:27.315Z,8.00
2023-03-05T14:46:59.856Z,13.73
2023-03-05T14:49:32.831Z,26.98
2023-03-05T14:52:06.977Z,21.85
2023-03-05T14:54:39.814Z,37.03
2023-03-05T14:57:18.775Z,5.57
2023-03-05T14:59:51.672Z,10.77
2023-03-05T15:02:25.590Z,6.05
2023-03-05T15:04:58.627Z,2.90
2023-03-05T15:07:32.101Z,10.68
2023-03-05T15:10:05.401Z,6.82
2023-03-05T15:12:37.957Z,3.55
2023-03-05T15:15:11.970Z,5.70
2023-03-05T15:17:47.879Z,4.95
2023-03-05T15:20:22.028Z,2.30
2023-03-05T15:22:54.744Z,4.13
2023-03-05T15:25:29.085Z,2.33
2023-03-05T15:28:01.968Z,2.70
2023-03-05T15:30:36.885Z,3.88
2023-03-05T15:33:10.696Z,4.05
2023-03-05T15:35:43.803Z,1.17
2023-03-05T15:38:16.530Z,3.75
2023-03-05T15:40:49.883Z,3.20
2023-03-05T15:43:22.430Z,0.88
2023-03-05T15:45:55.399Z,3.33
2023-03-05T15:48:27.934Z,2.90
2023-03-05T15:51:02.119Z,3.72
2023-03-05T15:53:34.678Z,10.68
2023-03-05T15:56:07.675Z,3.45
2023-03-05T15:58:40.150Z,6.80
2023-03-05T16:01:13.328Z,8.55
2023-03-05T16:03:46.266Z,7.07
2023-03-05T16:06:23.127Z,7.72
2023-03-05T16:08:57.566Z,6.75
2023-03-05T16:11:31.760Z,9.40
2023-03-05T16:14:05.419Z,3.72
2023-03-05T16:16:38.614Z,5.75
2023-03-05T16:19:12.261Z,1.65
2023-03-05T16:21:45.191Z,5.30
2023-03-05T16:24:17.854Z,3.35
2023-03-05T16:26:50.684Z,6.32
2023-03-05T16:29:26.484Z,8.15
2023-03-05T16:31:59.946Z,9.80
2023-03-05T16:34:34.944Z,3.63
2023-03-05T16:37:07.869Z,7.05
2023-03-05T16:39:41.168Z,8.48
2023-03-05T16:42:14.258Z,5.25
2023-03-05T16:44:47.839Z,10.20
2023-03-05T16:47:20.820Z,12.02
2023-03-05T16:49:53.344Z,9.55
2023-03-05T16:52:26.199Z,8.50
2023-03-05T16:54:58.821Z,8.15
2023-03-05T16:57:31.758Z,7.97
2023-03-05T17:00:05.014Z,13.60
2023-03-05T17:02:37.982Z,19.45
2023-03-05T17:05:10.722Z,14.90
2023-03-05T17:07:44.754Z,13.57
2023-03-05T17:10:18.950Z,8.73
2023-03-05T17:12:53.052Z,7.35
2023-03-05T17:15:25.658Z,6.65
2023-03-05T17:17:58.565Z,7.18
2023-03-05T17:20:31.312Z,22.00
2023-03-05T17:23:07.586Z,86.38
2023-03-05T17:25:40.161Z,79.25
2023-03-05T17:28:13.033Z,95.38
2023-03-05T17:30:45.630Z,89.50
2023-03-05T17:33:18.505Z,65.85
2023-03-05T17:35:51.154Z,63.83
2023-03-05T17:38:24.399Z,66.05
2023-03-05T17:40:56.974Z,54.65
2023-03-05T17:43:29.929Z,30.25
2023-03-05T17:46:02.583Z,14.50
2023-03-05T17:48:39.076Z,9.02
2023-03-05T17:51:12.868Z,13.60
2023-03-05T17:53:46.237Z,9.30
2023-03-05T17:56:26.600Z,18.10
2023-03-05T17:59:00.564Z,14.57
2023-03-05T18:01:34.818Z,9.82
2023-03-05T18:04:09.126Z,14.77
2023-03-05T18:06:43.201Z,18.08
2023-03-05T18:09:17.491Z,20.40
2023-03-05T18:11:56.101Z,23.33
2023-03-05T18:14:29.050Z,21.33
2023-03-05T18:17:01.766Z,14.90
2023-03-05T18:19:34.611Z,18.83
2023-03-05T18:22:07.780Z,18.15
2023-03-05T18:24:41.125Z,21.45
2023-03-05T18:27:13.662Z,15.73
2023-03-05T18:29:48.018Z,13.45
2023-03-05T18:32:25.703Z,21.00
2023-03-05T18:34:58.769Z,10.20
2023-03-05T18:37:31.484Z,19.70
2023-03-05T18:40:09.794Z,18.88
2023-03-05T18:42:42.489Z,20.83
2023-03-05T18:45:16.266Z,27.02
2023-03-05T18:47:49.474Z,14.38
2023-03-05T18:50:23.191Z,24.42
2023-03-05T18:52:55.866Z,29.75
2023-03-05T18:55:29.785Z,19.48
2023-03-05T18:58:03.702Z,22.10
2023-03-05T19:00:36.561Z,19.88
2023-03-05T19:03:09.372Z,16.50
2023-03-05T19:05:42.560Z,15.15
2023-03-05T19:08:15.120Z,21.60
2023-03-05T19:10:48.246Z,20.42
2023-03-05T19:13:25.437Z,30.00
2023-03-05T19:15:58.392Z,19.25
2023-03-05T19:18:34.185Z,23.48
2023-03-05T19:21:08.579Z,14.23
2023-03-05T19:23:41.165Z,9.00
2023-03-05T19:26:14.092Z,22.92
2023-03-05T19:28:46.704Z,38.85
2023-03-05T19:31:19.677Z,32.83
2023-03-05T19:33:52.299Z,26.98
2023-03-05T19:36:25.291Z,49.58
2023-03-05T19:38:57.778Z,17.83
2023-03-05T19:41:30.788Z,8.45
2023-03-05T19:44:03.876Z,9.80
2023-03-05T19:46:37.001Z,7.47
2023-03-05T19:49:10.045Z,15.60
2023-03-05T19:51:44.126Z,47.97
2023-03-05T19:54:17.816Z,12.30
2023-03-05T19:56:52.934Z,15.68
2023-03-05T19:59:26.987Z,21.48
2023-03-05T20:02:00.595Z,19.52
2023-03-05T20:04:33.276Z,13.02
2023-03-05T20:07:07.472Z,17.38
2023-03-05T20:09:39.998Z,9.40
2023-03-05T20:12:13.026Z,10.23
2023-03-05T20:14:45.598Z,9.68
2023-03-05T20:17:19.907Z,7.15
2023-03-05T20:19:53.189Z,9.52
2023-03-05T20:22:26.121Z,8.32
2023-03-05T20:24:58.760Z,12.00
2023-03-05T20:27:31.653Z,16.42
2023-03-05T20:30:05.539Z,18.05
2023-03-05T20:32:38.516Z,26.42
2023-03-05T20:35:20.739Z,5.60
2023-03-05T20:38:13.097Z,8.88
2023-03-05T20:40:45.773Z,11.35
2023-03-05T20:43:19.011Z,11.20
2023-03-05T20:45:54.277Z,12.60
2023-03-05T20:48:28.550Z,7.40
2023-03-05T20:51:10.928Z,12.63
2023-03-05T20:53:43.840Z,19.00
2023-03-05T20:56:16.588Z,29.60
2023-03-05T20:58:49.473Z,14.50
2023-03-05T21:01:22.303Z,11.63
2023-03-05T21:03:57.422Z,15.27
2023-03-05T21:06:30.999Z,19.13
2023-03-05T21:09:04.589Z,11.95
2023-03-05T21:11:37.592Z,18.23
2023-03-05T21:14:10.663Z,48.38
2023-03-05T21:16:43.273Z,99.45
2023-03-05T21:19:16.339Z,100.70
2023-03-05T21:21:48.828Z,68.45
2023-03-05T21:24:24.072Z,56.53
2023-03-05T21:26:56.842Z,95.85
2023-03-05T21:29:29.742Z,45.78
2023-03-05T21:32:02.613Z,27.70
2023-03-05T21:34:35.629Z,54.60
2023-03-05T21:37:08.449Z,51.88
2023-03-05T21:39:41.285Z,29.63
2023-03-05T21:42:13.842Z,33.63
2023-03-05T21:44:46.940Z,24.98
2023-03-05T21:47:19.501Z,26.15
2023-03-05T21:49:52.376Z,42.30
2023-03-05T21:52:24.966Z,43.65
2023-03-05T21:54:58.084Z,38.10
2023-03-05T21:57:30.772Z,32.35
2023-03-05T22:00:06.300Z,30.60
2023-03-05T22:02:44.406Z,26.05
2023-03-05T22:05:17.692Z,23.83
2023-03-05T22:07:50.226Z,16.35
2023-03-05T22:10:23.263Z,13.82
2023-03-05T22:12:59.833Z,11.30
2023-03-05T22:15:33.620Z,26.48
2023-03-05T22:18:06.475Z,14.95
2023-03-05T22:20:39.408Z,15.30
2023-03-05T22:23:12.311Z,9.93
2023-03-05T22:25:45.298Z,8.38
2023-03-05T22:28:17.920Z,8.10
2023-03-05T22:30:50.895Z,11.77
2023-03-05T22:33:23.446Z,16.13
2023-03-05T22:35:56.493Z,18.15
2023-03-05T22:38:29.095Z,11.07
2023-03-05T22:41:02.007Z,13.30
2023-03-05T22:43:34.777Z,16.77
2023-03-05T22:46:10.766Z,12.85
2023-03-05T22:48:43.530Z,9.18
2023-03-05T22:51:17.003Z,7.78
2023-03-05T22:53:49.720Z,11.93
2023-03-05T22:56:22.578Z,9.60
2023-03-05T22:58:55.139Z,7.32
2023-03-05T23:01:28.126Z,10.60
2023-03-05T23:04:07.443Z,10.30
2023-03-05T23:06:40.429Z,6.45
2023-03-05T23:09:12.935Z,11.82
2023-03-05T23:11:45.792Z,10.45
2023-03-05T23:14:18.366Z,42.38
2023-03-05T23:16:51.304Z,42.22
2023-03-05T23:19:23.869Z,29.00
2023-03-05T23:21:56.719Z,12.95
2023-03-05T23:24:29.913Z,15.90
2023-03-05T23:27:05.568Z,11.82
2023-03-05T23:29:54.706Z,16.35
2023-03-05T23:32:30.949Z,17.42
2023-03-05T23:35:03.769Z,7.22
2023-03-05T23:37:36.727Z,11.80
2023-03-05T23:40:11.994Z,8.10
2023-03-05T23:42:44.951Z,16.23
2023-03-05T23:45:18.370Z,6.68
2023-03-05T23:47:52.128Z,8.55
2023-03-05T23:50:26.050Z,15.13
2023-03-05T23:53:01.667Z,12.20
2023-03-05T23:55:42.381Z,11.15
2023-03-05T23:58:15.695Z,5.33
